sensor_id;sensor_type;location;lat;lon;timestamp;P1;durP1;ratioP1;P2;durP2;ratioP2
8183;SDS011;4133;48.752;9.088;2023-02-28T00:02:25;1.70;;;1.60;;
8183;SDS011;4133;48.752;9.088;2023-02-28T00:04:51;5.50;;;2.03;;
8183;SDS011;4133;48.752;9.088;2023-02-28T00:07:25;3.53;;;1.83;;
8183;SDS011;4133;48.752;9.088;2023-02-28T00:09:51;2.17;;;1.87;;
8183;SDS011;4133;48.752;9.088;2023-02-28T00:12:17;2.23;;;1.70;;
8183;SDS011;4133;48.752;9.088;2023-02-28T00:14:43;2.40;;;1.70;;
8183;SDS011;4133;48.752;9.088;2023-02-28T00:17:09;2.90;;;1.70;;
8183;SDS011;4133;48.752;9.088;2023-02-28T00:19:35;2.63;;;2.03;;
8183;SDS011;4133;48.752;9.088;2023-02-28T00:22:01;2.00;;;1.60;;
8183;SDS011;4133;48.752;9.088;2023-02-28T00:24:27;2.17;;;1.63;;
8183;SDS011;4133;48.752;9.088;2023-02-28T00:26:53;2.90;;;2.00;;
8183;SDS011;4133;48.752;9.088;2023-02-28T00:29:19;2.30;;;1.80;;
8183;SDS011;4133;48.752;9.088;2023-02-28T00:31:45;2.73;;;1.90;;
8183;SDS011;4133;48.752;9.088;2023-02-28T00:34:11;2.40;;;2.20;;
8183;SDS011;4133;48.752;9.088;2023-02-28T00:36:37;1.97;;;1.60;;
8183;SDS011;4133;48.752;9.088;2023-02-28T00:39:03;4.53;;;1.87;;
8183;SDS011;4133;48.752;9.088;2023-02-28T00:41:29;3.60;;;2.10;;
8183;SDS011;4133;48.752;9.088;2023-02-28T00:43:55;4.77;;;2.00;;
8183;SDS011;4133;48.752;9.088;2023-02-28T00:48:50;3.00;;;1.63;;
8183;SDS011;4133;48.752;9.088;2023-02-28T00:51:16;2.30;;;1.80;;
8183;SDS011;4133;48.752;9.088;2023-02-28T00:53:42;1.80;;;1.50;;
8183;SDS011;4133;48.752;9.088;2023-02-28T00:56:08;2.50;;;1.90;;
8183;SDS011;4133;48.752;9.088;2023-02-28T00:58:34;4.23;;;2.10;;
8183;SDS011;4133;48.752;9.088;2023-02-28T01:01:00;2.20;;;1.73;;
8183;SDS011;4133;48.752;9.088;2023-02-28T01:03:26;4.30;;;2.40;;
8183;SDS011;4133;48.752;9.088;2023-02-28T01:05:52;3.80;;;1.70;;
8183;SDS011;4133;48.752;9.088;2023-02-28T01:08:18;2.03;;;1.83;;
8183;SDS011;4133;48.752;9.088;2023-02-28T01:10:44;2.20;;;2.00;;
8183;SDS011;4133;48.752;9.088;2023-02-28T01:13:11;2.53;;;2.00;;
8183;SDS011;4133;48.752;9.088;2023-02-28T01:15:37;3.37;;;1.87;;
8183;SDS011;4133;48.752;9.088;2023-02-28T01:18:03;4.03;;;2.20;;
8183;SDS011;4133;48.752;9.088;2023-02-28T01:20:29;2.57;;;1.87;;
8183;SDS011;4133;48.752;9.088;2023-02-28T01:22:55;2.07;;;1.87;;
8183;SDS011;4133;48.752;9.088;2023-02-28T01:25:21;3.27;;;2.23;;
8183;SDS011;4133;48.752;9.088;2023-02-28T01:27:47;3.37;;;2.23;;
8183;SDS011;4133;48.752;9.088;2023-02-28T01:30:13;3.33;;;1.90;;
8183;SDS011;4133;48.752;9.088;2023-02-28T01:32:39;2.37;;;2.17;;
8183;SDS011;4133;48.752;9.088;2023-02-28T01:35:05;2.93;;;2.10;;
8183;SDS011;4133;48.752;9.088;2023-02-28T01:37:31;4.60;;;2.40;;
8183;SDS011;4133;48.752;9.088;2023-02-28T01:39:57;2.27;;;2.07;;
8183;SDS011;4133;48.752;9.088;2023-02-28T01:42:23;2.50;;;1.87;;
8183;SDS011;4133;48.752;9.088;2023-02-28T01:47:22;2.47;;;2.20;;
8183;SDS011;4133;48.752;9.088;2023-02-28T01:49:50;3.33;;;2.17;;
8183;SDS011;4133;48.752;9.088;2023-02-28T01:52:16;5.83;;;2.37;;
8183;SDS011;4133;48.752;9.088;2023-02-28T01:54:44;2.57;;;2.30;;
8183;SDS011;4133;48.752;9.088;2023-02-28T01:57:13;3.83;;;2.40;;
8183;SDS011;4133;48.752;9.088;2023-02-28T01:59:45;2.80;;;2.10;;
8183;SDS011;4133;48.752;9.088;2023-02-28T02:02:16;4.70;;;2.20;;
8183;SDS011;4133;48.752;9.088;2023-02-28T02:04:50;2.80;;;2.30;;
8183;SDS011;4133;48.752;9.088;2023-02-28T02:07:17;3.47;;;2.50;;
8183;SDS011;4133;48.752;9.088;2023-02-28T02:09:43;3.27;;;2.10;;
8183;SDS011;4133;48.752;9.088;2023-02-28T02:12:13;5.73;;;2.47;;
8183;SDS011;4133;48.752;9.088;2023-02-28T02:14:48;4.67;;;2.50;;
8183;SDS011;4133;48.752;9.088;2023-02-28T02:17:35;3.67;;;2.40;;
8183;SDS011;4133;48.752;9.088;2023-02-28T02:25:21;2.70;;;2.33;;
8183;SDS011;4133;48.752;9.088;2023-02-28T02:43:29;3.17;;;2.73;;
8183;SDS011;4133;48.752;9.088;2023-02-28T02:45:59;6.10;;;2.53;;
8183;SDS011;4133;48.752;9.088;2023-02-28T02:48:38;5.93;;;3.00;;
8183;SDS011;4133;48.752;9.088;2023-02-28T02:51:07;4.17;;;2.77;;
8183;SDS011;4133;48.752;9.088;2023-02-28T02:53:37;4.83;;;2.90;;
8183;SDS011;4133;48.752;9.088;2023-02-28T02:56:06;3.03;;;2.57;;
8183;SDS011;4133;48.752;9.088;2023-02-28T02:58:33;4.83;;;3.00;;
8183;SDS011;4133;48.752;9.088;2023-02-28T03:01:01;4.67;;;2.90;;
8183;SDS011;4133;48.752;9.088;2023-02-28T03:03:28;3.70;;;2.77;;
8183;SDS011;4133;48.752;9.088;2023-02-28T03:05:59;6.13;;;2.57;;
8183;SDS011;4133;48.752;9.088;2023-02-28T03:08:25;3.63;;;2.57;;
8183;SDS011;4133;48.752;9.088;2023-02-28T03:10:54;6.10;;;2.63;;
8183;SDS011;4133;48.752;9.088;2023-02-28T03:13:34;3.27;;;2.90;;
8183;SDS011;4133;48.752;9.088;2023-02-28T03:18:35;4.43;;;2.80;;
8183;SDS011;4133;48.752;9.088;2023-02-28T03:23:35;3.60;;;2.80;;
8183;SDS011;4133;48.752;9.088;2023-02-28T03:26:05;4.07;;;2.70;;
8183;SDS011;4133;48.752;9.088;2023-02-28T03:28:41;6.00;;;3.03;;
8183;SDS011;4133;48.752;9.088;2023-02-28T03:34:14;5.27;;;2.90;;
8183;SDS011;4133;48.752;9.088;2023-02-28T03:36:44;4.70;;;3.20;;
8183;SDS011;4133;48.752;9.088;2023-02-28T03:39:15;4.47;;;3.03;;
8183;SDS011;4133;48.752;9.088;2023-02-28T03:41:45;4.23;;;3.10;;
8183;SDS011;4133;48.752;9.088;2023-02-28T03:44:16;3.03;;;2.73;;
8183;SDS011;4133;48.752;9.088;2023-02-28T03:46:54;4.17;;;3.10;;
8183;SDS011;4133;48.752;9.088;2023-02-28T03:49:23;5.17;;;3.30;;
8183;SDS011;4133;48.752;9.088;2023-02-28T03:51:50;7.63;;;3.33;;
8183;SDS011;4133;48.752;9.088;2023-02-28T03:54:26;5.67;;;3.33;;
8183;SDS011;4133;48.752;9.088;2023-02-28T03:56:59;4.37;;;3.27;;
8183;SDS011;4133;48.752;9.088;2023-02-28T03:59:29;4.87;;;3.13;;
8183;SDS011;4133;48.752;9.088;2023-02-28T04:01:57;3.47;;;2.87;;
8183;SDS011;4133;48.752;9.088;2023-02-28T04:04:24;8.53;;;3.10;;
8183;SDS011;4133;48.752;9.088;2023-02-28T04:06:51;4.37;;;3.43;;
8183;SDS011;4133;48.752;9.088;2023-02-28T04:09:17;5.40;;;3.30;;
8183;SDS011;4133;48.752;9.088;2023-02-28T04:11:49;4.13;;;3.03;;
8183;SDS011;4133;48.752;9.088;2023-02-28T04:14:20;4.40;;;3.20;;
8183;SDS011;4133;48.752;9.088;2023-02-28T04:16:46;4.80;;;3.10;;
8183;SDS011;4133;48.752;9.088;2023-02-28T04:19:13;4.77;;;3.23;;
8183;SDS011;4133;48.752;9.088;2023-02-28T04:21:43;3.40;;;3.10;;
8183;SDS011;4133;48.752;9.088;2023-02-28T04:24:10;4.77;;;3.40;;
8183;SDS011;4133;48.752;9.088;2023-02-28T04:26:39;5.10;;;3.30;;
8183;SDS011;4133;48.752;9.088;2023-02-28T04:29:05;5.80;;;3.33;;
8183;SDS011;4133;48.752;9.088;2023-02-28T04:31:32;4.30;;;3.50;;
8183;SDS011;4133;48.752;9.088;2023-02-28T04:33:58;5.83;;;3.40;;
8183;SDS011;4133;48.752;9.088;2023-02-28T04:36:24;4.87;;;3.20;;
8183;SDS011;4133;48.752;9.088;2023-02-28T04:38:50;5.27;;;3.23;;
8183;SDS011;4133;48.752;9.088;2023-02-28T04:41:16;4.70;;;3.47;;
8183;SDS011;4133;48.752;9.088;2023-02-28T04:43:43;6.03;;;3.43;;
8183;SDS011;4133;48.752;9.088;2023-02-28T04:46:09;4.63;;;3.33;;
8183;SDS011;4133;48.752;9.088;2023-02-28T04:48:36;4.63;;;3.10;;
8183;SDS011;4133;48.752;9.088;2023-02-28T04:53:29;4.33;;;3.17;;
8183;SDS011;4133;48.752;9.088;2023-02-28T04:55:55;4.63;;;3.40;;
8183;SDS011;4133;48.752;9.088;2023-02-28T04:58:21;4.33;;;3.10;;
8183;SDS011;4133;48.752;9.088;2023-02-28T05:00:48;3.87;;;3.10;;
8183;SDS011;4133;48.752;9.088;2023-02-28T05:03:14;5.00;;;3.60;;
8183;SDS011;4133;48.752;9.088;2023-02-28T05:05:40;4.43;;;3.50;;
8183;SDS011;4133;48.752;9.088;2023-02-28T05:08:06;5.13;;;3.27;;
8183;SDS011;4133;48.752;9.088;2023-02-28T05:10:32;4.43;;;3.10;;
8183;SDS011;4133;48.752;9.088;2023-02-28T05:12:58;4.90;;;3.40;;
8183;SDS011;4133;48.752;9.088;2023-02-28T05:15:24;4.50;;;3.77;;
8183;SDS011;4133;48.752;9.088;2023-02-28T05:17:50;4.73;;;3.77;;
8183;SDS011;4133;48.752;9.088;2023-02-28T05:20:16;7.23;;;3.57;;
8183;SDS011;4133;48.752;9.088;2023-02-28T05:22:42;5.07;;;3.50;;
8183;SDS011;4133;48.752;9.088;2023-02-28T05:25:12;4.10;;;3.30;;
8183;SDS011;4133;48.752;9.088;2023-02-28T05:27:39;4.50;;;3.37;;
8183;SDS011;4133;48.752;9.088;2023-02-28T05:30:06;5.23;;;3.70;;
8183;SDS011;4133;48.752;9.088;2023-02-28T05:32:35;7.13;;;3.90;;
8183;SDS011;4133;48.752;9.088;2023-02-28T05:35:01;7.97;;;4.10;;
8183;SDS011;4133;48.752;9.088;2023-02-28T05:37:27;5.20;;;3.83;;
8183;SDS011;4133;48.752;9.088;2023-02-28T05:39:53;4.03;;;3.60;;
8183;SDS011;4133;48.752;9.088;2023-02-28T05:42:19;7.60;;;3.60;;
8183;SDS011;4133;48.752;9.088;2023-02-28T05:44:45;6.10;;;3.70;;
8183;SDS011;4133;48.752;9.088;2023-02-28T05:47:12;5.63;;;4.13;;
8183;SDS011;4133;48.752;9.088;2023-02-28T05:49:40;6.40;;;3.97;;
8183;SDS011;4133;48.752;9.088;2023-02-28T05:52:06;4.13;;;3.57;;
8183;SDS011;4133;48.752;9.088;2023-02-28T05:54:32;5.33;;;3.90;;
8183;SDS011;4133;48.752;9.088;2023-02-28T05:56:58;5.80;;;4.07;;
8183;SDS011;4133;48.752;9.088;2023-02-28T05:59:24;7.60;;;4.30;;
8183;SDS011;4133;48.752;9.088;2023-02-28T06:01:50;4.47;;;3.70;;
8183;SDS011;4133;48.752;9.088;2023-02-28T06:04:18;4.80;;;3.77;;
8183;SDS011;4133;48.752;9.088;2023-02-28T06:06:45;7.67;;;4.17;;
8183;SDS011;4133;48.752;9.088;2023-02-28T06:09:11;5.77;;;4.30;;
8183;SDS011;4133;48.752;9.088;2023-02-28T06:11:38;6.07;;;4.27;;
8183;SDS011;4133;48.752;9.088;2023-02-28T06:14:04;5.33;;;3.90;;
8183;SDS011;4133;48.752;9.088;2023-02-28T06:16:31;6.23;;;4.37;;
8183;SDS011;4133;48.752;9.088;2023-02-28T06:18:58;7.30;;;4.10;;
8183;SDS011;4133;48.752;9.088;2023-02-28T06:21:24;6.50;;;4.53;;
8183;SDS011;4133;48.752;9.088;2023-02-28T06:23:52;5.37;;;4.20;;
8183;SDS011;4133;48.752;9.088;2023-02-28T06:26:18;6.80;;;4.37;;
8183;SDS011;4133;48.752;9.088;2023-02-28T06:28:44;4.40;;;4.00;;
8183;SDS011;4133;48.752;9.088;2023-02-28T06:31:11;7.57;;;4.50;;
8183;SDS011;4133;48.752;9.088;2023-02-28T06:33:37;8.03;;;4.53;;
8183;SDS011;4133;48.752;9.088;2023-02-28T06:36:04;6.10;;;4.80;;
8183;SDS011;4133;48.752;9.088;2023-02-28T06:38:30;5.43;;;3.97;;
8183;SDS011;4133;48.752;9.088;2023-02-28T06:40:57;5.53;;;4.40;;
8183;SDS011;4133;48.752;9.088;2023-02-28T06:43:23;6.20;;;4.30;;
8183;SDS011;4133;48.752;9.088;2023-02-28T06:45:50;6.57;;;4.53;;
8183;SDS011;4133;48.752;9.088;2023-02-28T06:48:17;6.70;;;4.53;;
8183;SDS011;4133;48.752;9.088;2023-02-28T06:50:43;6.20;;;4.50;;
8183;SDS011;4133;48.752;9.088;2023-02-28T06:53:09;6.00;;;4.10;;
8183;SDS011;4133;48.752;9.088;2023-02-28T06:55:37;5.53;;;4.37;;
8183;SDS011;4133;48.752;9.088;2023-02-28T06:58:03;6.43;;;4.60;;
8183;SDS011;4133;48.752;9.088;2023-02-28T07:00:39;5.97;;;4.47;;
8183;SDS011;4133;48.752;9.088;2023-02-28T07:03:05;6.70;;;5.10;;
8183;SDS011;4133;48.752;9.088;2023-02-28T07:05:31;9.17;;;4.80;;
8183;SDS011;4133;48.752;9.088;2023-02-28T07:07:57;6.73;;;4.57;;
8183;SDS011;4133;48.752;9.088;2023-02-28T07:10:23;7.83;;;4.60;;
8183;SDS011;4133;48.752;9.088;2023-02-28T07:12:49;7.63;;;4.47;;
8183;SDS011;4133;48.752;9.088;2023-02-28T07:15:16;9.07;;;4.60;;
8183;SDS011;4133;48.752;9.088;2023-02-28T07:17:42;6.30;;;4.23;;
8183;SDS011;4133;48.752;9.088;2023-02-28T07:20:08;9.70;;;4.50;;
8183;SDS011;4133;48.752;9.088;2023-02-28T07:22:34;7.70;;;4.57;;
8183;SDS011;4133;48.752;9.088;2023-02-28T07:25:00;9.50;;;4.77;;
8183;SDS011;4133;48.752;9.088;2023-02-28T07:27:26;6.83;;;4.17;;
8183;SDS011;4133;48.752;9.088;2023-02-28T07:29:52;6.87;;;4.53;;
8183;SDS011;4133;48.752;9.088;2023-02-28T07:32:19;5.60;;;4.27;;
8183;SDS011;4133;48.752;9.088;2023-02-28T07:34:46;5.17;;;4.40;;
8183;SDS011;4133;48.752;9.088;2023-02-28T07:37:11;5.63;;;4.63;;
8183;SDS011;4133;48.752;9.088;2023-02-28T07:39:38;7.57;;;4.57;;
8183;SDS011;4133;48.752;9.088;2023-02-28T07:42:04;7.67;;;4.80;;
8183;SDS011;4133;48.752;9.088;2023-02-28T07:44:31;7.03;;;4.97;;
8183;SDS011;4133;48.752;9.088;2023-02-28T07:46:58;6.80;;;5.03;;
8183;SDS011;4133;48.752;9.088;2023-02-28T07:49:24;9.97;;;5.80;;
8183;SDS011;4133;48.752;9.088;2023-02-28T07:51:50;9.27;;;4.77;;
8183;SDS011;4133;48.752;9.088;2023-02-28T07:54:16;7.57;;;4.40;;
8183;SDS011;4133;48.752;9.088;2023-02-28T07:56:42;7.17;;;5.20;;
8183;SDS011;4133;48.752;9.088;2023-02-28T07:59:08;7.47;;;5.30;;
8183;SDS011;4133;48.752;9.088;2023-02-28T08:01:34;7.10;;;4.47;;
8183;SDS011;4133;48.752;9.088;2023-02-28T08:04:00;7.30;;;5.07;;
8183;SDS011;4133;48.752;9.088;2023-02-28T08:06:26;9.60;;;5.43;;
8183;SDS011;4133;48.752;9.088;2023-02-28T08:08:52;6.27;;;4.73;;
8183;SDS011;4133;48.752;9.088;2023-02-28T08:11:18;7.43;;;4.93;;
8183;SDS011;4133;48.752;9.088;2023-02-28T08:13:44;7.87;;;5.23;;
8183;SDS011;4133;48.752;9.088;2023-02-28T08:16:11;8.80;;;5.43;;
8183;SDS011;4133;48.752;9.088;2023-02-28T08:18:42;9.00;;;5.17;;
8183;SDS011;4133;48.752;9.088;2023-02-28T08:21:09;6.50;;;5.50;;
8183;SDS011;4133;48.752;9.088;2023-02-28T08:23:46;8.17;;;4.60;;
8183;SDS011;4133;48.752;9.088;2023-02-28T08:26:13;6.93;;;5.23;;
8183;SDS011;4133;48.752;9.088;2023-02-28T08:28:39;7.57;;;5.03;;
8183;SDS011;4133;48.752;9.088;2023-02-28T08:31:08;9.07;;;7.20;;
8183;SDS011;4133;48.752;9.088;2023-02-28T08:33:35;7.43;;;6.07;;
8183;SDS011;4133;48.752;9.088;2023-02-28T08:36:01;9.03;;;5.70;;
8183;SDS011;4133;48.752;9.088;2023-02-28T08:38:27;7.37;;;5.33;;
8183;SDS011;4133;48.752;9.088;2023-02-28T08:40:57;7.33;;;5.30;;
8183;SDS011;4133;48.752;9.088;2023-02-28T08:43:24;9.33;;;5.50;;
8183;SDS011;4133;48.752;9.088;2023-02-28T08:45:53;9.43;;;5.37;;
8183;SDS011;4133;48.752;9.088;2023-02-28T08:48:29;9.43;;;5.67;;
8183;SDS011;4133;48.752;9.088;2023-02-28T08:51:03;6.13;;;5.33;;
8183;SDS011;4133;48.752;9.088;2023-02-28T08:53:30;7.03;;;5.33;;
8183;SDS011;4133;48.752;9.088;2023-02-28T08:55:57;9.47;;;5.57;;
8183;SDS011;4133;48.752;9.088;2023-02-28T08:58:23;7.53;;;5.73;;
8183;SDS011;4133;48.752;9.088;2023-02-28T09:00:49;9.10;;;5.90;;
8183;SDS011;4133;48.752;9.088;2023-02-28T09:03:15;8.13;;;5.70;;
8183;SDS011;4133;48.752;9.088;2023-02-28T09:05:51;8.53;;;5.67;;
8183;SDS011;4133;48.752;9.088;2023-02-28T09:08:17;7.40;;;5.80;;
8183;SDS011;4133;48.752;9.088;2023-02-28T09:10:43;7.77;;;5.60;;
8183;SDS011;4133;48.752;9.088;2023-02-28T09:13:09;8.87;;;5.37;;
8183;SDS011;4133;48.752;9.088;2023-02-28T09:15:36;8.17;;;6.10;;
8183;SDS011;4133;48.752;9.088;2023-02-28T09:18:02;8.57;;;5.50;;
8183;SDS011;4133;48.752;9.088;2023-02-28T09:20:28;10.07;;;5.87;;
8183;SDS011;4133;48.752;9.088;2023-02-28T09:22:54;7.33;;;5.70;;
8183;SDS011;4133;48.752;9.088;2023-02-28T09:25:20;8.97;;;5.10;;
8183;SDS011;4133;48.752;9.088;2023-02-28T09:27:46;8.47;;;6.03;;
8183;SDS011;4133;48.752;9.088;2023-02-28T09:30:13;7.60;;;5.23;;
8183;SDS011;4133;48.752;9.088;2023-02-28T09:32:39;7.90;;;5.67;;
8183;SDS011;4133;48.752;9.088;2023-02-28T09:35:05;9.47;;;5.60;;
8183;SDS011;4133;48.752;9.088;2023-02-28T09:37:31;8.87;;;6.00;;
8183;SDS011;4133;48.752;9.088;2023-02-28T09:39:57;8.43;;;5.70;;
8183;SDS011;4133;48.752;9.088;2023-02-28T09:42:25;12.70;;;6.13;;
8183;SDS011;4133;48.752;9.088;2023-02-28T09:44:52;8.07;;;5.77;;
8183;SDS011;4133;48.752;9.088;2023-02-28T09:47:36;6.63;;;5.50;;
8183;SDS011;4133;48.752;9.088;2023-02-28T09:50:14;9.30;;;5.70;;
8183;SDS011;4133;48.752;9.088;2023-02-28T09:52:41;8.13;;;5.97;;
8183;SDS011;4133;48.752;9.088;2023-02-28T09:55:30;8.57;;;5.90;;
8183;SDS011;4133;48.752;9.088;2023-02-28T09:57:54;6.10;;;5.23;;
8183;SDS011;4133;48.752;9.088;2023-02-28T10:00:26;6.90;;;5.50;;
8183;SDS011;4133;48.752;9.088;2023-02-28T10:02:57;9.10;;;5.93;;
8183;SDS011;4133;48.752;9.088;2023-02-28T10:05:33;9.70;;;5.60;;
8183;SDS011;4133;48.752;9.088;2023-02-28T10:08:15;8.63;;;5.67;;
8183;SDS011;4133;48.752;9.088;2023-02-28T10:10:49;7.90;;;5.63;;
8183;SDS011;4133;48.752;9.088;2023-02-28T10:16:22;8.37;;;6.20;;
8183;SDS011;4133;48.752;9.088;2023-02-28T10:18:46;7.03;;;5.80;;
8183;SDS011;4133;48.752;9.088;2023-02-28T10:21:35;8.47;;;5.90;;
8183;SDS011;4133;48.752;9.088;2023-02-28T10:24:04;7.53;;;5.70;;
8183;SDS011;4133;48.752;9.088;2023-02-28T10:26:33;7.67;;;6.00;;
8183;SDS011;4133;48.752;9.088;2023-02-28T10:28:59;8.70;;;5.83;;
8183;SDS011;4133;48.752;9.088;2023-02-28T10:31:25;9.60;;;6.23;;
8183;SDS011;4133;48.752;9.088;2023-02-28T10:33:51;9.60;;;6.40;;
8183;SDS011;4133;48.752;9.088;2023-02-28T10:36:18;8.90;;;6.23;;
8183;SDS011;4133;48.752;9.088;2023-02-28T10:38:45;8.87;;;6.10;;
8183;SDS011;4133;48.752;9.088;2023-02-28T10:41:12;7.03;;;5.43;;
8183;SDS011;4133;48.752;9.088;2023-02-28T10:43:40;8.07;;;5.97;;
8183;SDS011;4133;48.752;9.088;2023-02-28T10:48:37;7.00;;;5.57;;
8183;SDS011;4133;48.752;9.088;2023-02-28T10:51:03;11.07;;;6.67;;
8183;SDS011;4133;48.752;9.088;2023-02-28T10:53:31;8.97;;;6.10;;
8183;SDS011;4133;48.752;9.088;2023-02-28T10:58:24;8.90;;;6.63;;
8183;SDS011;4133;48.752;9.088;2023-02-28T11:00:50;8.40;;;5.93;;
8183;SDS011;4133;48.752;9.088;2023-02-28T11:03:24;8.67;;;6.07;;
8183;SDS011;4133;48.752;9.088;2023-02-28T11:05:51;13.10;;;6.40;;
8183;SDS011;4133;48.752;9.088;2023-02-28T11:08:17;8.23;;;6.13;;
8183;SDS011;4133;48.752;9.088;2023-02-28T11:10:47;9.10;;;6.53;;
8183;SDS011;4133;48.752;9.088;2023-02-28T11:13:17;7.70;;;5.90;;
8183;SDS011;4133;48.752;9.088;2023-02-28T11:15:55;9.30;;;6.47;;
8183;SDS011;4133;48.752;9.088;2023-02-28T11:18:23;7.30;;;5.97;;
8183;SDS011;4133;48.752;9.088;2023-02-28T11:20:50;8.70;;;5.73;;
8183;SDS011;4133;48.752;9.088;2023-02-28T11:23:18;8.63;;;6.30;;
8183;SDS011;4133;48.752;9.088;2023-02-28T11:25:52;8.23;;;6.07;;
8183;SDS011;4133;48.752;9.088;2023-02-28T11:33:54;7.10;;;5.60;;
8183;SDS011;4133;48.752;9.088;2023-02-28T11:36:28;9.30;;;6.10;;
8183;SDS011;4133;48.752;9.088;2023-02-28T11:39:04;8.50;;;5.60;;
8183;SDS011;4133;48.752;9.088;2023-02-28T11:54:41;7.20;;;6.00;;
8183;SDS011;4133;48.752;9.088;2023-02-28T11:57:29;7.27;;;5.73;;
8183;SDS011;4133;48.752;9.088;2023-02-28T12:02:29;9.03;;;5.73;;
8183;SDS011;4133;48.752;9.088;2023-02-28T12:05:17;7.13;;;5.83;;
8183;SDS011;4133;48.752;9.088;2023-02-28T12:10:37;9.03;;;6.00;;
8183;SDS011;4133;48.752;9.088;2023-02-28T12:28:20;7.93;;;6.23;;
8183;SDS011;4133;48.752;9.088;2023-02-28T12:36:31;7.73;;;6.00;;
8183;SDS011;4133;48.752;9.088;2023-02-28T12:39:04;7.67;;;5.90;;
8183;SDS011;4133;48.752;9.088;2023-02-28T12:44:12;7.80;;;6.10;;
8183;SDS011;4133;48.752;9.088;2023-02-28T12:46:44;7.23;;;5.80;;
8183;SDS011;4133;48.752;9.088;2023-02-28T12:49:36;8.53;;;5.97;;
8183;SDS011;4133;48.752;9.088;2023-02-28T12:52:00;8.10;;;6.07;;
8183;SDS011;4133;48.752;9.088;2023-02-28T12:54:29;8.97;;;5.57;;
8183;SDS011;4133;48.752;9.088;2023-02-28T13:09:31;7.27;;;5.63;;
8183;SDS011;4133;48.752;9.088;2023-02-28T13:11:57;6.47;;;5.70;;
8183;SDS011;4133;48.752;9.088;2023-02-28T13:16:55;8.83;;;5.60;;
8183;SDS011;4133;48.752;9.088;2023-02-28T13:19:22;6.63;;;5.47;;
8183;SDS011;4133;48.752;9.088;2023-02-28T13:21:49;7.23;;;5.80;;
8183;SDS011;4133;48.752;9.088;2023-02-28T13:35:12;7.53;;;5.70;;
8183;SDS011;4133;48.752;9.088;2023-02-28T13:52:48;6.70;;;5.87;;
8183;SDS011;4133;48.752;9.088;2023-02-28T14:05:34;6.10;;;5.50;;
8183;SDS011;4133;48.752;9.088;2023-02-28T14:08:34;8.50;;;6.07;;
8183;SDS011;4133;48.752;9.088;2023-02-28T14:11:03;8.17;;;5.47;;
8183;SDS011;4133;48.752;9.088;2023-02-28T14:16:12;7.33;;;5.90;;
8183;SDS011;4133;48.752;9.088;2023-02-28T14:18:40;6.97;;;5.47;;
8183;SDS011;4133;48.752;9.088;2023-02-28T14:21:23;6.37;;;5.27;;
8183;SDS011;4133;48.752;9.088;2023-02-28T14:26:29;6.03;;;5.33;;
8183;SDS011;4133;48.752;9.088;2023-02-28T14:37:08;7.57;;;5.10;;
8183;SDS011;4133;48.752;9.088;2023-02-28T14:39:36;6.67;;;5.00;;
8183;SDS011;4133;48.752;9.088;2023-02-28T14:42:24;6.67;;;5.77;;
8183;SDS011;4133;48.752;9.088;2023-02-28T14:44:53;7.83;;;5.50;;
8183;SDS011;4133;48.752;9.088;2023-02-28T14:47:28;6.33;;;5.40;;
8183;SDS011;4133;48.752;9.088;2023-02-28T14:49:55;6.57;;;5.50;;
8183;SDS011;4133;48.752;9.088;2023-02-28T14:52:23;5.90;;;4.90;;
8183;SDS011;4133;48.752;9.088;2023-02-28T14:55:14;6.50;;;5.67;;
8183;SDS011;4133;48.752;9.088;2023-02-28T14:57:42;6.63;;;5.77;;
8183;SDS011;4133;48.752;9.088;2023-02-28T15:00:26;6.60;;;5.57;;
8183;SDS011;4133;48.752;9.088;2023-02-28T15:02:52;7.30;;;5.53;;
8183;SDS011;4133;48.752;9.088;2023-02-28T15:07:45;7.43;;;5.67;;
8183;SDS011;4133;48.752;9.088;2023-02-28T15:12:53;7.87;;;5.83;;
8183;SDS011;4133;48.752;9.088;2023-02-28T15:15:21;7.57;;;5.87;;
8183;SDS011;4133;48.752;9.088;2023-02-28T15:17:49;5.97;;;4.93;;
8183;SDS011;4133;48.752;9.088;2023-02-28T15:20:16;6.57;;;5.57;;
8183;SDS011;4133;48.752;9.088;2023-02-28T15:22:43;6.33;;;5.30;;
8183;SDS011;4133;48.752;9.088;2023-02-28T15:25:13;7.47;;;5.43;;
8183;SDS011;4133;48.752;9.088;2023-02-28T15:27:50;7.20;;;5.60;;
8183;SDS011;4133;48.752;9.088;2023-02-28T15:30:26;7.80;;;5.90;;
8183;SDS011;4133;48.752;9.088;2023-02-28T15:33:07;5.90;;;5.30;;
8183;SDS011;4133;48.752;9.088;2023-02-28T15:35:44;6.83;;;5.60;;
8183;SDS011;4133;48.752;9.088;2023-02-28T15:38:23;8.00;;;5.90;;
8183;SDS011;4133;48.752;9.088;2023-02-28T15:40:56;8.37;;;6.13;;
8183;SDS011;4133;48.752;9.088;2023-02-28T15:43:23;6.83;;;5.77;;
8183;SDS011;4133;48.752;9.088;2023-02-28T15:45:51;7.80;;;5.97;;
8183;SDS011;4133;48.752;9.088;2023-02-28T15:51:32;9.37;;;5.97;;
8183;SDS011;4133;48.752;9.088;2023-02-28T15:54:00;6.67;;;5.77;;
8183;SDS011;4133;48.752;9.088;2023-02-28T15:56:30;7.90;;;6.00;;
8183;SDS011;4133;48.752;9.088;2023-02-28T15:58:57;7.13;;;5.63;;
8183;SDS011;4133;48.752;9.088;2023-02-28T16:01:28;6.97;;;5.37;;
8183;SDS011;4133;48.752;9.088;2023-02-28T16:03:59;7.43;;;6.17;;
8183;SDS011;4133;48.752;9.088;2023-02-28T16:06:43;8.57;;;6.00;;
8183;SDS011;4133;48.752;9.088;2023-02-28T16:09:10;9.70;;;5.80;;
8183;SDS011;4133;48.752;9.088;2023-02-28T16:11:38;7.23;;;6.10;;
8183;SDS011;4133;48.752;9.088;2023-02-28T16:14:19;7.53;;;5.87;;
8183;SDS011;4133;48.752;9.088;2023-02-28T16:16:49;7.50;;;6.30;;
8183;SDS011;4133;48.752;9.088;2023-02-28T16:19:16;7.60;;;6.27;;
8183;SDS011;4133;48.752;9.088;2023-02-28T16:21:42;6.87;;;5.87;;
8183;SDS011;4133;48.752;9.088;2023-02-28T16:24:08;8.27;;;5.87;;
8183;SDS011;4133;48.752;9.088;2023-02-28T16:26:34;8.20;;;6.07;;
8183;SDS011;4133;48.752;9.088;2023-02-28T16:29:02;8.30;;;6.07;;
8183;SDS011;4133;48.752;9.088;2023-02-28T16:31:28;9.70;;;6.30;;
8183;SDS011;4133;48.752;9.088;2023-02-28T16:33:55;8.17;;;6.40;;
8183;SDS011;4133;48.752;9.088;2023-02-28T16:36:22;8.53;;;6.77;;
8183;SDS011;4133;48.752;9.088;2023-02-28T16:38:50;11.03;;;6.27;;
8183;SDS011;4133;48.752;9.088;2023-02-28T16:41:20;8.77;;;5.97;;
8183;SDS011;4133;48.752;9.088;2023-02-28T16:43:47;10.00;;;6.77;;
8183;SDS011;4133;48.752;9.088;2023-02-28T16:48:58;7.47;;;5.80;;
8183;SDS011;4133;48.752;9.088;2023-02-28T16:51:24;8.63;;;6.27;;
8183;SDS011;4133;48.752;9.088;2023-02-28T16:53:50;8.40;;;6.00;;
8183;SDS011;4133;48.752;9.088;2023-02-28T16:56:20;8.30;;;6.23;;
8183;SDS011;4133;48.752;9.088;2023-02-28T16:58:47;8.47;;;6.80;;
8183;SDS011;4133;48.752;9.088;2023-02-28T17:01:13;9.53;;;6.50;;
8183;SDS011;4133;48.752;9.088;2023-02-28T17:03:40;8.33;;;5.93;;
8183;SDS011;4133;48.752;9.088;2023-02-28T17:06:17;10.60;;;6.80;;
8183;SDS011;4133;48.752;9.088;2023-02-28T17:08:43;10.80;;;6.40;;
8183;SDS011;4133;48.752;9.088;2023-02-28T17:11:09;9.63;;;6.50;;
8183;SDS011;4133;48.752;9.088;2023-02-28T17:13:35;7.53;;;5.87;;
8183;SDS011;4133;48.752;9.088;2023-02-28T17:16:01;9.10;;;6.33;;
8183;SDS011;4133;48.752;9.088;2023-02-28T17:18:27;7.90;;;6.10;;
8183;SDS011;4133;48.752;9.088;2023-02-28T17:20:58;9.43;;;6.50;;
8183;SDS011;4133;48.752;9.088;2023-02-28T17:23:24;9.00;;;6.43;;
8183;SDS011;4133;48.752;9.088;2023-02-28T17:25:50;9.23;;;6.30;;
8183;SDS011;4133;48.752;9.088;2023-02-28T17:28:20;8.77;;;6.40;;
8183;SDS011;4133;48.752;9.088;2023-02-28T17:30:46;11.53;;;6.73;;
8183;SDS011;4133;48.752;9.088;2023-02-28T17:33:13;8.57;;;6.50;;
8183;SDS011;4133;48.752;9.088;2023-02-28T17:35:39;8.47;;;6.47;;
8183;SDS011;4133;48.752;9.088;2023-02-28T17:38:08;7.73;;;6.07;;
8183;SDS011;4133;48.752;9.088;2023-02-28T17:40:39;9.73;;;6.13;;
8183;SDS011;4133;48.752;9.088;2023-02-28T17:43:05;10.30;;;6.17;;
8183;SDS011;4133;48.752;9.088;2023-02-28T17:45:31;8.27;;;6.30;;
8183;SDS011;4133;48.752;9.088;2023-02-28T17:47:59;8.03;;;6.40;;
8183;SDS011;4133;48.752;9.088;2023-02-28T17:50:26;7.93;;;6.60;;
8183;SDS011;4133;48.752;9.088;2023-02-28T17:52:52;9.00;;;6.60;;
8183;SDS011;4133;48.752;9.088;2023-02-28T17:55:18;8.47;;;6.10;;
8183;SDS011;4133;48.752;9.088;2023-02-28T17:57:44;9.77;;;6.63;;
8183;SDS011;4133;48.752;9.088;2023-02-28T18:00:12;8.13;;;6.43;;
8183;SDS011;4133;48.752;9.088;2023-02-28T18:02:38;7.97;;;6.47;;
8183;SDS011;4133;48.752;9.088;2023-02-28T18:05:04;8.67;;;6.23;;
8183;SDS011;4133;48.752;9.088;2023-02-28T18:07:30;9.57;;;6.97;;
8183;SDS011;4133;48.752;9.088;2023-02-28T18:09:56;10.97;;;6.70;;
8183;SDS011;4133;48.752;9.088;2023-02-28T18:12:22;8.30;;;6.67;;